sensor_id;sensor_type;location;lat;lon;timestamp;P1;durP1;ratioP1;P2;durP2;ratioP2
13163;SDS011;6647;53.688;10.746;2022-10-29T00:29:21;20.70;;;6.88;;
13163;SDS011;6647;53.688;10.746;2022-10-29T02:47:00;23.25;;;5.15;;
13163;SDS011;6647;53.688;10.746;2022-10-29T03:41:04;18.70;;;4.72;;
13163;SDS011;6647;53.688;10.746;2022-10-29T05:29:09;13.35;;;3.80;;
13163;SDS011;6647;53.688;10.746;2022-10-29T05:56:57;16.73;;;4.32;;
13163;SDS011;6647;53.688;10.746;2022-10-29T05:58:18;17.45;;;3.70;;
13163;SDS011;6647;53.688;10.746;2022-10-29T05:59:38;22.42;;;4.28;;
13163;SDS011;6647;53.688;10.746;2022-10-29T06:00:59;24.35;;;4.95;;
13163;SDS011;6647;53.688;10.746;2022-10-29T06:02:24;15.48;;;3.63;;
13163;SDS011;6647;53.688;10.746;2022-10-29T06:03:45;23.73;;;5.32;;
13163;SDS011;6647;53.688;10.746;2022-10-29T06:05:06;21.40;;;4.35;;
13163;SDS011;6647;53.688;10.746;2022-10-29T06:06:27;23.42;;;4.43;;
13163;SDS011;6647;53.688;10.746;2022-10-29T06:07:52;12.60;;;4.20;;
13163;SDS011;6647;53.688;10.746;2022-10-29T06:09:14;22.33;;;3.85;;
13163;SDS011;6647;53.688;10.746;2022-10-29T06:10:35;15.43;;;4.07;;
13163;SDS011;6647;53.688;10.746;2022-10-29T06:11:56;14.85;;;4.28;;
13163;SDS011;6647;53.688;10.746;2022-10-29T06:13:17;24.27;;;4.53;;
13163;SDS011;6647;53.688;10.746;2022-10-29T06:14:39;16.88;;;4.55;;
13163;SDS011;6647;53.688;10.746;2022-10-29T06:16:00;17.45;;;4.43;;
13163;SDS011;6647;53.688;10.746;2022-10-29T06:17:21;16.90;;;4.43;;
13163;SDS011;6647;53.688;10.746;2022-10-29T06:18:42;11.60;;;3.40;;
13163;SDS011;6647;53.688;10.746;2022-10-29T06:20:03;22.98;;;4.43;;
13163;SDS011;6647;53.688;10.746;2022-10-29T06:21:24;15.55;;;4.00;;
13163;SDS011;6647;53.688;10.746;2022-10-29T06:22:45;21.20;;;4.13;;
13163;SDS011;6647;53.688;10.746;2022-10-29T06:24:07;19.65;;;4.63;;
13163;SDS011;6647;53.688;10.746;2022-10-29T06:25:28;21.88;;;4.82;;
13163;SDS011;6647;53.688;10.746;2022-10-29T06:26:51;22.50;;;3.72;;
13163;SDS011;6647;53.688;10.746;2022-10-29T06:28:13;18.30;;;4.45;;
13163;SDS011;6647;53.688;10.746;2022-10-29T06:29:38;14.90;;;4.72;;
13163;SDS011;6647;53.688;10.746;2022-10-29T06:30:59;16.73;;;3.92;;
13163;SDS011;6647;53.688;10.746;2022-10-29T06:32:20;14.13;;;4.03;;
13163;SDS011;6647;53.688;10.746;2022-10-29T06:33:40;18.13;;;3.60;;
13163;SDS011;6647;53.688;10.746;2022-10-29T06:35:01;18.70;;;4.35;;
13163;SDS011;6647;53.688;10.746;2022-10-29T06:36:23;14.73;;;3.70;;
13163;SDS011;6647;53.688;10.746;2022-10-29T06:37:44;18.95;;;4.05;;
13163;SDS011;6647;53.688;10.746;2022-10-29T06:39:04;19.90;;;4.45;;
13163;SDS011;6647;53.688;10.746;2022-10-29T06:40:25;14.10;;;3.78;;
13163;SDS011;6647;53.688;10.746;2022-10-29T06:41:46;13.50;;;3.65;;
13163;SDS011;6647;53.688;10.746;2022-10-29T06:43:10;17.67;;;4.07;;
13163;SDS011;6647;53.688;10.746;2022-10-29T06:44:32;11.80;;;4.00;;
13163;SDS011;6647;53.688;10.746;2022-10-29T06:45:52;19.10;;;4.22;;
13163;SDS011;6647;53.688;10.746;2022-10-29T06:47:13;15.80;;;3.15;;
13163;SDS011;6647;53.688;10.746;2022-10-29T06:48:34;12.65;;;4.15;;
13163;SDS011;6647;53.688;10.746;2022-10-29T06:49:55;18.73;;;3.95;;
13163;SDS011;6647;53.688;10.746;2022-10-29T06:51:16;11.57;;;3.10;;
13163;SDS011;6647;53.688;10.746;2022-10-29T06:52:37;32.60;;;4.53;;
13163;SDS011;6647;53.688;10.746;2022-10-29T06:53:58;19.40;;;4.90;;
13163;SDS011;6647;53.688;10.746;2022-10-29T06:55:19;20.95;;;4.50;;
13163;SDS011;6647;53.688;10.746;2022-10-29T06:56:40;14.00;;;4.18;;
13163;SDS011;6647;53.688;10.746;2022-10-29T06:58:01;27.10;;;5.10;;
13163;SDS011;6647;53.688;10.746;2022-10-29T06:59:24;17.35;;;4.55;;
13163;SDS011;6647;53.688;10.746;2022-10-29T07:00:45;16.73;;;5.15;;
13163;SDS011;6647;53.688;10.746;2022-10-29T07:02:08;21.33;;;4.90;;
13163;SDS011;6647;53.688;10.746;2022-10-29T07:03:31;22.15;;;4.80;;
13163;SDS011;6647;53.688;10.746;2022-10-29T07:04:52;16.45;;;4.75;;
13163;SDS011;6647;53.688;10.746;2022-10-29T07:06:13;13.35;;;3.90;;
13163;SDS011;6647;53.688;10.746;2022-10-29T07:07:34;23.65;;;5.05;;
13163;SDS011;6647;53.688;10.746;2022-10-29T07:08:55;19.80;;;5.20;;
13163;SDS011;6647;53.688;10.746;2022-10-29T07:10:16;14.95;;;4.13;;
13163;SDS011;6647;53.688;10.746;2022-10-29T07:11:36;14.50;;;4.30;;
13163;SDS011;6647;53.688;10.746;2022-10-29T07:12:58;10.98;;;3.72;;
13163;SDS011;6647;53.688;10.746;2022-10-29T07:14:19;18.77;;;4.40;;
13163;SDS011;6647;53.688;10.746;2022-10-29T07:15:40;14.38;;;4.25;;
13163;SDS011;6647;53.688;10.746;2022-10-29T07:17:00;15.15;;;4.30;;
13163;SDS011;6647;53.688;10.746;2022-10-29T07:18:21;15.13;;;3.90;;
13163;SDS011;6647;53.688;10.746;2022-10-29T07:19:42;12.07;;;4.35;;
13163;SDS011;6647;53.688;10.746;2022-10-29T07:21:03;18.98;;;4.82;;
13163;SDS011;6647;53.688;10.746;2022-10-29T07:22:24;16.95;;;4.53;;
13163;SDS011;6647;53.688;10.746;2022-10-29T07:23:45;13.05;;;4.40;;
13163;SDS011;6647;53.688;10.746;2022-10-29T07:25:06;28.33;;;5.25;;
13163;SDS011;6647;53.688;10.746;2022-10-29T07:26:27;14.25;;;4.60;;
13163;SDS011;6647;53.688;10.746;2022-10-29T07:27:48;13.07;;;4.45;;
13163;SDS011;6647;53.688;10.746;2022-10-29T07:29:09;24.17;;;5.45;;
13163;SDS011;6647;53.688;10.746;2022-10-29T07:30:30;17.35;;;4.90;;
13163;SDS011;6647;53.688;10.746;2022-10-29T07:31:52;25.38;;;4.85;;
13163;SDS011;6647;53.688;10.746;2022-10-29T07:33:13;22.35;;;4.60;;
13163;SDS011;6647;53.688;10.746;2022-10-29T07:34:35;18.60;;;4.93;;
13163;SDS011;6647;53.688;10.746;2022-10-29T07:35:56;16.85;;;4.57;;
13163;SDS011;6647;53.688;10.746;2022-10-29T07:37:18;15.02;;;4.20;;
13163;SDS011;6647;53.688;10.746;2022-10-29T07:38:39;15.30;;;5.10;;
13163;SDS011;6647;53.688;10.746;2022-10-29T07:40:00;16.02;;;4.55;;
13163;SDS011;6647;53.688;10.746;2022-10-29T07:41:21;10.68;;;3.90;;
13163;SDS011;6647;53.688;10.746;2022-10-29T07:42:42;14.10;;;3.97;;
13163;SDS011;6647;53.688;10.746;2022-10-29T07:44:02;19.90;;;4.47;;
13163;SDS011;6647;53.688;10.746;2022-10-29T07:45:23;11.20;;;3.95;;
13163;SDS011;6647;53.688;10.746;2022-10-29T07:46:45;11.95;;;4.40;;
13163;SDS011;6647;53.688;10.746;2022-10-29T07:48:05;14.20;;;4.32;;
13163;SDS011;6647;53.688;10.746;2022-10-29T07:49:27;14.35;;;4.10;;
13163;SDS011;6647;53.688;10.746;2022-10-29T07:50:48;16.88;;;3.90;;
13163;SDS011;6647;53.688;10.746;2022-10-29T07:52:09;15.38;;;4.03;;
13163;SDS011;6647;53.688;10.746;2022-10-29T07:53:30;16.35;;;4.10;;
13163;SDS011;6647;53.688;10.746;2022-10-29T07:54:52;23.02;;;4.72;;
13163;SDS011;6647;53.688;10.746;2022-10-29T07:56:12;14.48;;;5.10;;
13163;SDS011;6647;53.688;10.746;2022-10-29T07:57:33;17.10;;;4.95;;
13163;SDS011;6647;53.688;10.746;2022-10-29T07:58:54;12.95;;;4.30;;
13163;SDS011;6647;53.688;10.746;2022-10-29T08:00:15;19.08;;;4.38;;
13163;SDS011;6647;53.688;10.746;2022-10-29T08:01:36;15.77;;;5.05;;
13163;SDS011;6647;53.688;10.746;2022-10-29T08:02:57;17.40;;;4.93;;
13163;SDS011;6647;53.688;10.746;2022-10-29T08:04:18;18.27;;;4.22;;
13163;SDS011;6647;53.688;10.746;2022-10-29T08:05:39;19.60;;;5.30;;
13163;SDS011;6647;53.688;10.746;2022-10-29T08:07:00;19.25;;;5.43;;
13163;SDS011;6647;53.688;10.746;2022-10-29T08:08:21;15.75;;;4.75;;
13163;SDS011;6647;53.688;10.746;2022-10-29T08:09:43;12.55;;;4.65;;
13163;SDS011;6647;53.688;10.746;2022-10-29T08:11:04;13.63;;;4.95;;
13163;SDS011;6647;53.688;10.746;2022-10-29T08:12:25;19.00;;;5.05;;
13163;SDS011;6647;53.688;10.746;2022-10-29T08:13:47;20.85;;;5.75;;
13163;SDS011;6647;53.688;10.746;2022-10-29T08:15:08;13.32;;;4.85;;
13163;SDS011;6647;53.688;10.746;2022-10-29T08:16:29;15.43;;;5.10;;
13163;SDS011;6647;53.688;10.746;2022-10-29T08:17:50;14.80;;;4.85;;
13163;SDS011;6647;53.688;10.746;2022-10-29T08:19:11;15.23;;;5.68;;
13163;SDS011;6647;53.688;10.746;2022-10-29T08:20:31;15.82;;;5.90;;
13163;SDS011;6647;53.688;10.746;2022-10-29T08:21:52;24.02;;;6.88;;
13163;SDS011;6647;53.688;10.746;2022-10-29T08:23:13;25.52;;;8.00;;
13163;SDS011;6647;53.688;10.746;2022-10-29T08:24:34;24.73;;;7.78;;
13163;SDS011;6647;53.688;10.746;2022-10-29T08:25:59;19.48;;;7.38;;
13163;SDS011;6647;53.688;10.746;2022-10-29T08:27:20;18.88;;;7.55;;
13163;SDS011;6647;53.688;10.746;2022-10-29T08:28:40;20.30;;;7.53;;
13163;SDS011;6647;53.688;10.746;2022-10-29T08:30:03;25.05;;;8.43;;
13163;SDS011;6647;53.688;10.746;2022-10-29T08:31:25;26.95;;;10.07;;
13163;SDS011;6647;53.688;10.746;2022-10-29T08:32:46;28.30;;;10.88;;
13163;SDS011;6647;53.688;10.746;2022-10-29T08:34:06;31.17;;;11.45;;
13163;SDS011;6647;53.688;10.746;2022-10-29T08:35:27;22.98;;;12.73;;
13163;SDS011;6647;53.688;10.746;2022-10-29T08:36:48;28.55;;;13.80;;
13163;SDS011;6647;53.688;10.746;2022-10-29T08:38:09;25.52;;;13.27;;
13163;SDS011;6647;53.688;10.746;2022-10-29T08:39:30;34.28;;;12.70;;
13163;SDS011;6647;53.688;10.746;2022-10-29T08:42:54;30.00;;;13.00;;
13163;SDS011;6647;53.688;10.746;2022-10-29T08:44:29;28.63;;;12.90;;
13163;SDS011;6647;53.688;10.746;2022-10-29T08:46:59;25.05;;;12.55;;
13163;SDS011;6647;53.688;10.746;2022-10-29T08:48:24;27.42;;;12.77;;
13163;SDS011;6647;53.688;10.746;2022-10-29T08:49:56;30.35;;;13.88;;
13163;SDS011;6647;53.688;10.746;2022-10-29T08:52:53;25.95;;;13.52;;
13163;SDS011;6647;53.688;10.746;2022-10-29T08:54:14;24.52;;;12.93;;
13163;SDS011;6647;53.688;10.746;2022-10-29T08:55:37;29.02;;;13.65;;
13163;SDS011;6647;53.688;10.746;2022-10-29T08:56:58;25.48;;;13.02;;
13163;SDS011;6647;53.688;10.746;2022-10-29T08:58:27;34.03;;;12.70;;
13163;SDS011;6647;53.688;10.746;2022-10-29T09:00:18;25.52;;;12.63;;
13163;SDS011;6647;53.688;10.746;2022-10-29T09:01:41;31.52;;;12.40;;
13163;SDS011;6647;53.688;10.746;2022-10-29T09:03:08;26.10;;;14.50;;
13163;SDS011;6647;53.688;10.746;2022-10-29T09:04:34;20.70;;;12.18;;
13163;SDS011;6647;53.688;10.746;2022-10-29T09:05:59;29.40;;;11.80;;
13163;SDS011;6647;53.688;10.746;2022-10-29T09:09:26;21.25;;;13.35;;
13163;SDS011;6647;53.688;10.746;2022-10-29T09:11:03;34.58;;;14.30;;
13163;SDS011;6647;53.688;10.746;2022-10-29T09:12:48;30.92;;;14.05;;
13163;SDS011;6647;53.688;10.746;2022-10-29T09:14:40;24.65;;;14.32;;
13163;SDS011;6647;53.688;10.746;2022-10-29T09:16:09;29.55;;;14.90;;
13163;SDS011;6647;53.688;10.746;2022-10-29T09:17:36;27.88;;;14.85;;
13163;SDS011;6647;53.688;10.746;2022-10-29T09:22:37;30.25;;;14.75;;
13163;SDS011;6647;53.688;10.746;2022-10-29T09:24:18;19.77;;;13.13;;
13163;SDS011;6647;53.688;10.746;2022-10-29T09:25:50;37.20;;;15.77;;
13163;SDS011;6647;53.688;10.746;2022-10-29T09:30:14;25.90;;;15.30;;
13163;SDS011;6647;53.688;10.746;2022-10-29T09:31:40;22.02;;;13.75;;
13163;SDS011;6647;53.688;10.746;2022-10-29T09:33:12;23.33;;;13.30;;
13163;SDS011;6647;53.688;10.746;2022-10-29T09:36:18;28.45;;;13.90;;
13163;SDS011;6647;53.688;10.746;2022-10-29T09:37:43;33.63;;;15.50;;
13163;SDS011;6647;53.688;10.746;2022-10-29T09:39:24;33.65;;;14.23;;
13163;SDS011;6647;53.688;10.746;2022-10-29T09:40:55;25.92;;;14.85;;
13163;SDS011;6647;53.688;10.746;2022-10-29T09:42:35;27.85;;;13.98;;
13163;SDS011;6647;53.688;10.746;2022-10-29T09:43:59;27.20;;;14.93;;
13163;SDS011;6647;53.688;10.746;2022-10-29T09:45:52;29.17;;;14.88;;
13163;SDS011;6647;53.688;10.746;2022-10-29T09:51:00;25.30;;;14.30;;
13163;SDS011;6647;53.688;10.746;2022-10-29T09:52:39;30.17;;;13.88;;
13163;SDS011;6647;53.688;10.746;2022-10-29T09:54:02;29.23;;;14.82;;
13163;SDS011;6647;53.688;10.746;2022-10-29T09:55:26;26.02;;;13.38;;
13163;SDS011;6647;53.688;10.746;2022-10-29T09:56:52;38.88;;;15.73;;
13163;SDS011;6647;53.688;10.746;2022-10-29T09:58:16;31.20;;;14.90;;
13163;SDS011;6647;53.688;10.746;2022-10-29T09:59:50;23.27;;;13.55;;
13163;SDS011;6647;53.688;10.746;2022-10-29T10:01:14;29.02;;;13.85;;
13163;SDS011;6647;53.688;10.746;2022-10-29T10:02:42;26.33;;;13.23;;
13163;SDS011;6647;53.688;10.746;2022-10-29T10:04:11;24.20;;;13.00;;
13163;SDS011;6647;53.688;10.746;2022-10-29T10:07:17;27.13;;;13.48;;
13163;SDS011;6647;53.688;10.746;2022-10-29T10:10:20;27.20;;;13.55;;
13163;SDS011;6647;53.688;10.746;2022-10-29T10:11:42;22.20;;;11.68;;
13163;SDS011;6647;53.688;10.746;2022-10-29T10:13:12;40.70;;;14.18;;
13163;SDS011;6647;53.688;10.746;2022-10-29T10:14:34;26.48;;;12.90;;
13163;SDS011;6647;53.688;10.746;2022-10-29T10:15:56;22.90;;;10.68;;
13163;SDS011;6647;53.688;10.746;2022-10-29T10:17:18;19.98;;;10.55;;
13163;SDS011;6647;53.688;10.746;2022-10-29T10:18:40;19.45;;;12.10;;
13163;SDS011;6647;53.688;10.746;2022-10-29T10:20:02;25.83;;;11.43;;
13163;SDS011;6647;53.688;10.746;2022-10-29T10:21:26;25.27;;;11.27;;
13163;SDS011;6647;53.688;10.746;2022-10-29T10:22:49;17.50;;;10.85;;
13163;SDS011;6647;53.688;10.746;2022-10-29T10:24:25;24.23;;;10.43;;
13163;SDS011;6647;53.688;10.746;2022-10-29T10:25:52;28.08;;;10.27;;
13163;SDS011;6647;53.688;10.746;2022-10-29T10:28:39;15.38;;;8.55;;
13163;SDS011;6647;53.688;10.746;2022-10-29T10:30:05;22.10;;;8.93;;
13163;SDS011;6647;53.688;10.746;2022-10-29T10:31:31;17.95;;;10.18;;
13163;SDS011;6647;53.688;10.746;2022-10-29T10:32:52;19.50;;;8.68;;
13163;SDS011;6647;53.688;10.746;2022-10-29T10:34:26;20.67;;;9.23;;
13163;SDS011;6647;53.688;10.746;2022-10-29T10:35:59;19.23;;;9.02;;
13163;SDS011;6647;53.688;10.746;2022-10-29T10:37:23;19.10;;;9.10;;
13163;SDS011;6647;53.688;10.746;2022-10-29T10:38:54;20.25;;;9.13;;
13163;SDS011;6647;53.688;10.746;2022-10-29T10:40:19;17.30;;;8.38;;
13163;SDS011;6647;53.688;10.746;2022-10-29T10:41:44;23.08;;;9.13;;
13163;SDS011;6647;53.688;10.746;2022-10-29T10:43:05;17.15;;;8.85;;
13163;SDS011;6647;53.688;10.746;2022-10-29T10:44:26;12.98;;;7.25;;
13163;SDS011;6647;53.688;10.746;2022-10-29T10:45:57;15.98;;;8.80;;
13163;SDS011;6647;53.688;10.746;2022-10-29T10:47:23;16.23;;;8.30;;
13163;SDS011;6647;53.688;10.746;2022-10-29T10:49:00;13.73;;;8.43;;
13163;SDS011;6647;53.688;10.746;2022-10-29T10:50:28;17.05;;;7.80;;
13163;SDS011;6647;53.688;10.746;2022-10-29T10:51:52;13.93;;;7.28;;
13163;SDS011;6647;53.688;10.746;2022-10-29T10:53:16;14.15;;;8.68;;
13163;SDS011;6647;53.688;10.746;2022-10-29T10:54:40;16.88;;;9.02;;
13163;SDS011;6647;53.688;10.746;2022-10-29T10:56:18;17.77;;;9.68;;
13163;SDS011;6647;53.688;10.746;2022-10-29T10:57:44;19.05;;;9.77;;
13163;SDS011;6647;53.688;10.746;2022-10-29T10:59:13;11.38;;;8.20;;
13163;SDS011;6647;53.688;10.746;2022-10-29T11:00:37;16.95;;;9.32;;
13163;SDS011;6647;53.688;10.746;2022-10-29T11:04:20;13.15;;;7.78;;
13163;SDS011;6647;53.688;10.746;2022-10-29T11:05:48;24.52;;;10.35;;
13163;SDS011;6647;53.688;10.746;2022-10-29T11:07:15;19.50;;;10.15;;
13163;SDS011;6647;53.688;10.746;2022-10-29T11:08:39;20.75;;;10.82;;
13163;SDS011;6647;53.688;10.746;2022-10-29T11:10:05;19.60;;;10.80;;
13163;SDS011;6647;53.688;10.746;2022-10-29T11:11:33;22.58;;;13.93;;
13163;SDS011;6647;53.688;10.746;2022-10-29T11:13:09;28.20;;;12.60;;
13163;SDS011;6647;53.688;10.746;2022-10-29T11:14:48;24.50;;;12.95;;
13163;SDS011;6647;53.688;10.746;2022-10-29T11:19:12;22.23;;;11.65;;
13163;SDS011;6647;53.688;10.746;2022-10-29T11:20:43;25.67;;;13.23;;
13163;SDS011;6647;53.688;10.746;2022-10-29T11:23:53;26.08;;;14.02;;
13163;SDS011;6647;53.688;10.746;2022-10-29T11:25:44;34.03;;;15.13;;
13163;SDS011;6647;53.688;10.746;2022-10-29T11:27:14;28.65;;;14.55;;
13163;SDS011;6647;53.688;10.746;2022-10-29T11:30:43;23.48;;;13.43;;
13163;SDS011;6647;53.688;10.746;2022-10-29T11:32:14;21.70;;;12.98;;
13163;SDS011;6647;53.688;10.746;2022-10-29T11:33:40;23.42;;;13.50;;
13163;SDS011;6647;53.688;10.746;2022-10-29T11:35:28;23.33;;;11.75;;
13163;SDS011;6647;53.688;10.746;2022-10-29T11:36:54;31.10;;;15.38;;
13163;SDS011;6647;53.688;10.746;2022-10-29T11:40:05;27.23;;;13.20;;
13163;SDS011;6647;53.688;10.746;2022-10-29T11:41:43;25.90;;;12.40;;
13163;SDS011;6647;53.688;10.746;2022-10-29T11:43:10;23.23;;;12.13;;
13163;SDS011;6647;53.688;10.746;2022-10-29T11:44:33;26.75;;;13.18;;
13163;SDS011;6647;53.688;10.746;2022-10-29T11:45:59;27.40;;;13.02;;
13163;SDS011;6647;53.688;10.746;2022-10-29T11:47:49;27.38;;;12.75;;
13163;SDS011;6647;53.688;10.746;2022-10-29T11:49:35;26.05;;;11.88;;
13163;SDS011;6647;53.688;10.746;2022-10-29T11:51:07;21.88;;;12.00;;
13163;SDS011;6647;53.688;10.746;2022-10-29T11:52:52;27.00;;;13.10;;
13163;SDS011;6647;53.688;10.746;2022-10-29T11:56:04;30.83;;;12.10;;
13163;SDS011;6647;53.688;10.746;2022-10-29T11:57:37;24.98;;;12.80;;
13163;SDS011;6647;53.688;10.746;2022-10-29T11:59:09;22.48;;;13.10;;
13163;SDS011;6647;53.688;10.746;2022-10-29T12:00:53;28.70;;;13.40;;
13163;SDS011;6647;53.688;10.746;2022-10-29T12:02:33;28.13;;;13.27;;
13163;SDS011;6647;53.688;10.746;2022-10-29T12:06:39;23.02;;;13.43;;
13163;SDS011;6647;53.688;10.746;2022-10-29T12:11:44;25.48;;;12.48;;
13163;SDS011;6647;53.688;10.746;2022-10-29T12:13:28;27.77;;;12.50;;
13163;SDS011;6647;53.688;10.746;2022-10-29T12:15:03;32.25;;;14.63;;
13163;SDS011;6647;53.688;10.746;2022-10-29T12:17:01;28.67;;;12.88;;
13163;SDS011;6647;53.688;10.746;2022-10-29T12:18:34;24.15;;;13.25;;
13163;SDS011;6647;53.688;10.746;2022-10-29T12:20:20;28.77;;;14.57;;
13163;SDS011;6647;53.688;10.746;2022-10-29T12:24:00;26.63;;;13.27;;
13163;SDS011;6647;53.688;10.746;2022-10-29T12:25:41;32.78;;;11.80;;
13163;SDS011;6647;53.688;10.746;2022-10-29T12:29:10;25.35;;;12.02;;
13163;SDS011;6647;53.688;10.746;2022-10-29T12:34:27;25.67;;;14.07;;
13163;SDS011;6647;53.688;10.746;2022-10-29T12:37:32;35.63;;;14.43;;
13163;SDS011;6647;53.688;10.746;2022-10-29T12:39:18;24.73;;;12.85;;
13163;SDS011;6647;53.688;10.746;2022-10-29T12:41:03;30.40;;;13.25;;
13163;SDS011;6647;53.688;10.746;2022-10-29T12:42:27;29.77;;;14.75;;
13163;SDS011;6647;53.688;10.746;2022-10-29T12:43:50;32.90;;;14.25;;
13163;SDS011;6647;53.688;10.746;2022-10-29T12:48:28;34.42;;;13.30;;
13163;SDS011;6647;53.688;10.746;2022-10-29T12:50:16;35.35;;;14.77;;
13163;SDS011;6647;53.688;10.746;2022-10-29T12:51:49;26.85;;;12.50;;
13163;SDS011;6647;53.688;10.746;2022-10-29T12:55:11;32.22;;;13.50;;
13163;SDS011;6647;53.688;10.746;2022-10-29T12:56:34;30.50;;;12.85;;
13163;SDS011;6647;53.688;10.746;2022-10-29T12:57:55;22.90;;;11.70;;
13163;SDS011;6647;53.688;10.746;2022-10-29T12:59:35;27.00;;;13.32;;
13163;SDS011;6647;53.688;10.746;2022-10-29T13:00:56;25.13;;;12.45;;
13163;SDS011;6647;53.688;10.746;2022-10-29T13:03:57;29.90;;;13.55;;
13163;SDS011;6647;53.688;10.746;2022-10-29T13:08:27;31.33;;;14.10;;
13163;SDS011;6647;53.688;10.746;2022-10-29T13:10:38;28.08;;;12.10;;
13163;SDS011;6647;53.688;10.746;2022-10-29T13:11:46;19.88;;;12.40;;
13163;SDS011;6647;53.688;10.746;2022-10-29T13:13:19;34.45;;;13.90;;
13163;SDS011;6647;53.688;10.746;2022-10-29T13:14:54;29.23;;;13.38;;
13163;SDS011;6647;53.688;10.746;2022-10-29T13:16:23;25.80;;;13.75;;
13163;SDS011;6647;53.688;10.746;2022-10-29T13:17:46;18.02;;;11.32;;
13163;SDS011;6647;53.688;10.746;2022-10-29T13:19:13;25.30;;;11.85;;
13163;SDS011;6647;53.688;10.746;2022-10-29T13:20:38;29.13;;;12.73;;
13163;SDS011;6647;53.688;10.746;2022-10-29T13:23:35;27.23;;;11.07;;
13163;SDS011;6647;53.688;10.746;2022-10-29T13:27:01;24.98;;;11.77;;
13163;SDS011;6647;53.688;10.746;2022-10-29T13:29:46;20.98;;;10.98;;
13163;SDS011;6647;53.688;10.746;2022-10-29T13:32:33;23.10;;;11.10;;
13163;SDS011;6647;53.688;10.746;2022-10-29T13:33:56;24.83;;;10.00;;
13163;SDS011;6647;53.688;10.746;2022-10-29T13:36:38;22.13;;;10.68;;
13163;SDS011;6647;53.688;10.746;2022-10-29T13:39:28;28.02;;;11.05;;
13163;SDS011;6647;53.688;10.746;2022-10-29T13:41:02;20.30;;;9.80;;
13163;SDS011;6647;53.688;10.746;2022-10-29T13:42:27;16.88;;;8.75;;
13163;SDS011;6647;53.688;10.746;2022-10-29T13:43:59;26.52;;;9.93;;
13163;SDS011;6647;53.688;10.746;2022-10-29T13:45:23;31.08;;;10.95;;
13163;SDS011;6647;53.688;10.746;2022-10-29T13:46:46;26.17;;;10.82;;
13163;SDS011;6647;53.688;10.746;2022-10-29T13:48:34;28.98;;;10.63;;
13163;SDS011;6647;53.688;10.746;2022-10-29T13:49:56;23.25;;;11.57;;
13163;SDS011;6647;53.688;10.746;2022-10-29T13:51:21;25.77;;;11.50;;
13163;SDS011;6647;53.688;10.746;2022-10-29T13:52:50;17.25;;;10.07;;
13163;SDS011;6647;53.688;10.746;2022-10-29T13:54:31;21.58;;;10.18;;
13163;SDS011;6647;53.688;10.746;2022-10-29T13:56:05;29.15;;;9.93;;
13163;SDS011;6647;53.688;10.746;2022-10-29T13:57:33;18.23;;;10.00;;
13163;SDS011;6647;53.688;10.746;2022-10-29T13:58:59;21.80;;;9.38;;
13163;SDS011;6647;53.688;10.746;2022-10-29T14:00:22;23.92;;;9.63;;
13163;SDS011;6647;53.688;10.746;2022-10-29T14:01:47;20.02;;;9.70;;
13163;SDS011;6647;53.688;10.746;2022-10-29T14:03:17;20.83;;;9.85;;
13163;SDS011;6647;53.688;10.746;2022-10-29T14:04:46;25.27;;;9.68;;
13163;SDS011;6647;53.688;10.746;2022-10-29T14:06:14;21.60;;;9.50;;
13163;SDS011;6647;53.688;10.746;2022-10-29T14:07:51;22.67;;;9.57;;
13163;SDS011;6647;53.688;10.746;2022-10-29T14:09:44;20.17;;;11.00;;
13163;SDS011;6647;53.688;10.746;2022-10-29T14:11:08;27.23;;;10.15;;
13163;SDS011;6647;53.688;10.746;2022-10-29T14:12:34;18.83;;;9.88;;
13163;SDS011;6647;53.688;10.746;2022-10-29T14:13:58;22.42;;;10.68;;
13163;SDS011;6647;53.688;10.746;2022-10-29T14:15:22;25.40;;;11.57;;
13163;SDS011;6647;53.688;10.746;2022-10-29T14:16:43;22.35;;;11.90;;
13163;SDS011;6647;53.688;10.746;2022-10-29T14:18:17;19.27;;;10.20;;
13163;SDS011;6647;53.688;10.746;2022-10-29T14:19:47;27.17;;;12.13;;
13163;SDS011;6647;53.688;10.746;2022-10-29T14:21:26;19.13;;;11.45;;
13163;SDS011;6647;53.688;10.746;2022-10-29T14:22:49;17.25;;;11.45;;
13163;SDS011;6647;53.688;10.746;2022-10-29T14:24:10;21.55;;;10.98;;
13163;SDS011;6647;53.688;10.746;2022-10-29T14:25:35;23.20;;;10.48;;
13163;SDS011;6647;53.688;10.746;2022-10-29T14:27:04;19.40;;;10.02;;
13163;SDS011;6647;53.688;10.746;2022-10-29T14:28:27;21.55;;;10.35;;
13163;SDS011;6647;53.688;10.746;2022-10-29T14:29:51;23.15;;;10.32;;
13163;SDS011;6647;53.688;10.746;2022-10-29T14:31:30;26.08;;;9.73;;
13163;SDS011;6647;53.688;10.746;2022-10-29T14:32:51;17.73;;;9.32;;
13163;SDS011;6647;53.688;10.746;2022-10-29T14:34:25;20.48;;;10.90;;
13163;SDS011;6647;53.688;10.746;2022-10-29T14:35:47;23.00;;;10.65;;
13163;SDS011;6647;53.688;10.746;2022-10-29T14:38:54;28.02;;;10.35;;
13163;SDS011;6647;53.688;10.746;2022-10-29T14:40:22;28.60;;;10.60;;
13163;SDS011;6647;53.688;10.746;2022-10-29T14:41:43;18.30;;;9.20;;
13163;SDS011;6647;53.688;10.746;2022-10-29T14:43:11;22.65;;;9.40;;
13163;SDS011;6647;53.688;10.746;2022-10-29T14:44:44;15.48;;;9.52;;
13163;SDS011;6647;53.688;10.746;2022-10-29T14:46:12;22.77;;;10.02;;
13163;SDS011;6647;53.688;10.746;2022-10-29T14:47:51;22.60;;;9.82;;
13163;SDS011;6647;53.688;10.746;2022-10-29T14:49:28;22.98;;;9.57;;
13163;SDS011;6647;53.688;10.746;2022-10-29T14:50:51;24.35;;;11.10;;
13163;SDS011;6647;53.688;10.746;2022-10-29T14:53:51;19.95;;;9.45;;
13163;SDS011;6647;53.688;10.746;2022-10-29T14:55:19;19.95;;;9.32;;
13163;SDS011;6647;53.688;10.746;2022-10-29T14:56:46;20.20;;;10.10;;
13163;SDS011;6647;53.688;10.746;2022-10-29T14:59:30;21.52;;;8.95;;
13163;SDS011;6647;53.688;10.746;2022-10-29T15:00:54;23.92;;;9.55;;
13163;SDS011;6647;53.688;10.746;2022-10-29T15:02:17;25.25;;;10.82;;
13163;SDS011;6647;53.688;10.746;2022-10-29T15:03:39;32.58;;;13.52;;
13163;SDS011;6647;53.688;10.746;2022-10-29T15:05:00;26.08;;;12.65;;
13163;SDS011;6647;53.688;10.746;2022-10-29T15:06:26;23.63;;;13.70;;
13163;SDS011;6647;53.688;10.746;2022-10-29T15:07:48;36.55;;;14.55;;
13163;SDS011;6647;53.688;10.746;2022-10-29T15:09:09;26.52;;;12.65;;
13163;SDS011;6647;53.688;10.746;2022-10-29T15:10:44;21.58;;;12.13;;
13163;SDS011;6647;53.688;10.746;2022-10-29T15:12:19;25.23;;;12.55;;
13163;SDS011;6647;53.688;10.746;2022-10-29T15:13:44;27.38;;;11.68;;
13163;SDS011;6647;53.688;10.746;2022-10-29T15:16:37;20.38;;;10.43;;
13163;SDS011;6647;53.688;10.746;2022-10-29T15:18:01;21.80;;;9.90;;
13163;SDS011;6647;53.688;10.746;2022-10-29T15:19:35;21.83;;;10.73;;
13163;SDS011;6647;53.688;10.746;2022-10-29T15:21:01;22.70;;;10.30;;
13163;SDS011;6647;53.688;10.746;2022-10-29T15:22:36;27.73;;;11.60;;
13163;SDS011;6647;53.688;10.746;2022-10-29T15:24:01;15.20;;;10.15;;
13163;SDS011;6647;53.688;10.746;2022-10-29T15:25:30;23.27;;;10.80;;
13163;SDS011;6647;53.688;10.746;2022-10-29T15:26:55;23.17;;;9.70;;
13163;SDS011;6647;53.688;10.746;2022-10-29T15:28:21;17.98;;;10.48;;
13163;SDS011;6647;53.688;10.746;2022-10-29T15:29:45;23.60;;;9.18;;
13163;SDS011;6647;53.688;10.746;2022-10-29T15:31:25;22.10;;;9.30;;
13163;SDS011;6647;53.688;10.746;2022-10-29T15:32:56;18.73;;;8.73;;
13163;SDS011;6647;53.688;10.746;2022-10-29T15:34:21;20.92;;;9.30;;
13163;SDS011;6647;53.688;10.746;2022-10-29T15:35:53;16.50;;;9.20;;
13163;SDS011;6647;53.688;10.746;2022-10-29T15:40:09;26.20;;;10.90;;